sensor_id;sensor_type;location;lat;lon;timestamp;P1;durP1;ratioP1;P2;durP2;ratioP2
50337;SDS011;46221;51.178;5.900;2023-03-19T00:01:43;2.83;;;1.48;;
50337;SDS011;46221;51.178;5.900;2023-03-19T00:04:11;3.25;;;1.20;;
50337;SDS011;46221;51.178;5.900;2023-03-19T00:06:38;2.78;;;1.35;;
50337;SDS011;46221;51.178;5.900;2023-03-19T00:09:04;2.35;;;1.45;;
50337;SDS011;46221;51.178;5.900;2023-03-19T00:11:31;2.25;;;1.00;;
50337;SDS011;46221;51.178;5.900;2023-03-19T00:13:58;2.00;;;1.10;;
50337;SDS011;46221;51.178;5.900;2023-03-19T00:16:24;3.00;;;1.30;;
50337;SDS011;46221;51.178;5.900;2023-03-19T00:18:51;3.15;;;1.40;;
50337;SDS011;46221;51.178;5.900;2023-03-19T00:21:17;2.90;;;1.40;;
50337;SDS011;46221;51.178;5.900;2023-03-19T00:23:43;2.55;;;1.30;;
50337;SDS011;46221;51.178;5.900;2023-03-19T00:26:10;3.45;;;1.70;;
50337;SDS011;46221;51.178;5.900;2023-03-19T00:28:37;3.17;;;1.40;;
50337;SDS011;46221;51.178;5.900;2023-03-19T00:31:07;2.35;;;1.23;;
50337;SDS011;46221;51.178;5.900;2023-03-19T00:33:33;2.40;;;1.40;;
50337;SDS011;46221;51.178;5.900;2023-03-19T00:36:00;2.88;;;1.27;;
50337;SDS011;46221;51.178;5.900;2023-03-19T00:38:26;3.28;;;1.35;;
50337;SDS011;46221;51.178;5.900;2023-03-19T00:40:53;3.83;;;1.40;;
50337;SDS011;46221;51.178;5.900;2023-03-19T00:43:19;2.10;;;1.33;;
50337;SDS011;46221;51.178;5.900;2023-03-19T00:45:45;3.75;;;1.30;;
50337;SDS011;46221;51.178;5.900;2023-03-19T00:48:12;3.35;;;1.20;;
50337;SDS011;46221;51.178;5.900;2023-03-19T00:50:38;4.38;;;1.50;;
50337;SDS011;46221;51.178;5.900;2023-03-19T00:53:04;2.58;;;1.35;;
50337;SDS011;46221;51.178;5.900;2023-03-19T00:55:31;2.45;;;1.35;;
50337;SDS011;46221;51.178;5.900;2023-03-19T00:57:58;2.20;;;1.17;;
50337;SDS011;46221;51.178;5.900;2023-03-19T01:00:24;2.72;;;1.45;;
50337;SDS011;46221;51.178;5.900;2023-03-19T01:02:50;2.97;;;1.33;;
50337;SDS011;46221;51.178;5.900;2023-03-19T01:05:17;1.80;;;1.20;;
50337;SDS011;46221;51.178;5.900;2023-03-19T01:07:43;4.45;;;1.23;;
50337;SDS011;46221;51.178;5.900;2023-03-19T01:10:10;3.60;;;1.63;;
50337;SDS011;46221;51.178;5.900;2023-03-19T01:12:36;2.78;;;1.35;;
50337;SDS011;46221;51.178;5.900;2023-03-19T01:15:03;3.30;;;1.50;;
50337;SDS011;46221;51.178;5.900;2023-03-19T01:17:30;3.38;;;1.38;;
50337;SDS011;46221;51.178;5.900;2023-03-19T01:19:56;2.42;;;1.33;;
50337;SDS011;46221;51.178;5.900;2023-03-19T01:22:22;2.40;;;1.20;;
50337;SDS011;46221;51.178;5.900;2023-03-19T01:24:49;3.03;;;1.45;;
50337;SDS011;46221;51.178;5.900;2023-03-19T01:27:15;1.77;;;1.10;;
50337;SDS011;46221;51.178;5.900;2023-03-19T01:29:41;2.85;;;1.30;;
50337;SDS011;46221;51.178;5.900;2023-03-19T01:32:08;3.00;;;1.50;;
50337;SDS011;46221;51.178;5.900;2023-03-19T01:34:34;2.85;;;1.58;;
50337;SDS011;46221;51.178;5.900;2023-03-19T01:37:01;2.10;;;1.13;;
50337;SDS011;46221;51.178;5.900;2023-03-19T01:39:28;2.28;;;1.35;;
50337;SDS011;46221;51.178;5.900;2023-03-19T01:41:54;3.20;;;1.38;;
50337;SDS011;46221;51.178;5.900;2023-03-19T01:44:27;3.72;;;1.23;;
50337;SDS011;46221;51.178;5.900;2023-03-19T01:46:54;2.15;;;1.00;;
50337;SDS011;46221;51.178;5.900;2023-03-19T01:49:21;4.43;;;1.42;;
50337;SDS011;46221;51.178;5.900;2023-03-19T01:51:48;2.53;;;1.42;;
50337;SDS011;46221;51.178;5.900;2023-03-19T01:54:15;4.15;;;1.60;;
50337;SDS011;46221;51.178;5.900;2023-03-19T01:56:43;2.47;;;1.40;;
50337;SDS011;46221;51.178;5.900;2023-03-19T01:59:11;2.67;;;1.20;;
50337;SDS011;46221;51.178;5.900;2023-03-19T02:01:45;2.97;;;1.40;;
50337;SDS011;46221;51.178;5.900;2023-03-19T02:04:13;2.53;;;1.30;;
50337;SDS011;46221;51.178;5.900;2023-03-19T02:06:40;2.95;;;1.40;;
50337;SDS011;46221;51.178;5.900;2023-03-19T02:09:06;4.85;;;1.30;;
50337;SDS011;46221;51.178;5.900;2023-03-19T02:11:33;3.85;;;1.30;;
50337;SDS011;46221;51.178;5.900;2023-03-19T02:14:00;2.70;;;1.42;;
50337;SDS011;46221;51.178;5.900;2023-03-19T02:16:27;2.85;;;1.33;;
50337;SDS011;46221;51.178;5.900;2023-03-19T02:18:53;2.78;;;1.38;;
50337;SDS011;46221;51.178;5.900;2023-03-19T02:21:20;5.20;;;1.65;;
50337;SDS011;46221;51.178;5.900;2023-03-19T02:23:52;2.72;;;1.38;;
50337;SDS011;46221;51.178;5.900;2023-03-19T02:26:21;2.38;;;1.10;;
50337;SDS011;46221;51.178;5.900;2023-03-19T02:28:48;2.53;;;1.50;;
50337;SDS011;46221;51.178;5.900;2023-03-19T02:31:15;3.70;;;1.50;;
50337;SDS011;46221;51.178;5.900;2023-03-19T02:33:42;3.50;;;1.50;;
50337;SDS011;46221;51.178;5.900;2023-03-19T02:36:09;3.50;;;1.50;;
50337;SDS011;46221;51.178;5.900;2023-03-19T02:38:38;2.95;;;1.58;;
50337;SDS011;46221;51.178;5.900;2023-03-19T02:41:06;2.13;;;1.27;;
50337;SDS011;46221;51.178;5.900;2023-03-19T02:43:34;2.40;;;1.35;;
50337;SDS011;46221;51.178;5.900;2023-03-19T02:46:01;3.00;;;1.70;;
50337;SDS011;46221;51.178;5.900;2023-03-19T02:48:28;1.45;;;1.00;;
50337;SDS011;46221;51.178;5.900;2023-03-19T02:50:54;2.97;;;1.20;;
50337;SDS011;46221;51.178;5.900;2023-03-19T02:53:21;2.83;;;1.25;;
50337;SDS011;46221;51.178;5.900;2023-03-19T02:55:48;2.33;;;1.25;;
50337;SDS011;46221;51.178;5.900;2023-03-19T02:58:14;3.30;;;1.40;;
50337;SDS011;46221;51.178;5.900;2023-03-19T03:00:41;2.15;;;1.27;;
50337;SDS011;46221;51.178;5.900;2023-03-19T03:03:07;3.13;;;1.67;;
50337;SDS011;46221;51.178;5.900;2023-03-19T03:05:34;3.00;;;1.25;;
50337;SDS011;46221;51.178;5.900;2023-03-19T03:08:01;2.38;;;1.20;;
50337;SDS011;46221;51.178;5.900;2023-03-19T03:10:28;2.53;;;1.30;;
50337;SDS011;46221;51.178;5.900;2023-03-19T03:12:54;3.63;;;1.40;;
50337;SDS011;46221;51.178;5.900;2023-03-19T03:15:21;3.00;;;1.20;;
50337;SDS011;46221;51.178;5.900;2023-03-19T03:17:47;3.83;;;1.73;;
50337;SDS011;46221;51.178;5.900;2023-03-19T03:20:15;2.88;;;1.30;;
50337;SDS011;46221;51.178;5.900;2023-03-19T03:22:43;3.55;;;1.70;;
50337;SDS011;46221;51.178;5.900;2023-03-19T03:25:09;3.00;;;1.45;;
50337;SDS011;46221;51.178;5.900;2023-03-19T03:27:36;3.20;;;1.63;;
50337;SDS011;46221;51.178;5.900;2023-03-19T03:30:03;2.10;;;1.30;;
50337;SDS011;46221;51.178;5.900;2023-03-19T03:32:30;3.58;;;2.00;;
50337;SDS011;46221;51.178;5.900;2023-03-19T03:34:56;2.67;;;1.48;;
50337;SDS011;46221;51.178;5.900;2023-03-19T03:37:23;2.60;;;1.50;;
50337;SDS011;46221;51.178;5.900;2023-03-19T03:39:49;2.83;;;1.70;;
50337;SDS011;46221;51.178;5.900;2023-03-19T03:42:16;2.13;;;1.23;;
50337;SDS011;46221;51.178;5.900;2023-03-19T03:44:42;3.10;;;1.35;;
50337;SDS011;46221;51.178;5.900;2023-03-19T03:47:08;2.88;;;1.50;;
50337;SDS011;46221;51.178;5.900;2023-03-19T03:49:35;2.85;;;1.70;;
50337;SDS011;46221;51.178;5.900;2023-03-19T03:52:01;2.97;;;1.55;;
50337;SDS011;46221;51.178;5.900;2023-03-19T03:54:28;3.25;;;1.80;;
50337;SDS011;46221;51.178;5.900;2023-03-19T03:56:54;2.75;;;1.35;;
50337;SDS011;46221;51.178;5.900;2023-03-19T03:59:20;3.00;;;1.60;;
50337;SDS011;46221;51.178;5.900;2023-03-19T04:01:47;3.22;;;1.60;;
50337;SDS011;46221;51.178;5.900;2023-03-19T04:04:14;3.03;;;1.50;;
50337;SDS011;46221;51.178;5.900;2023-03-19T04:06:40;2.85;;;1.55;;
50337;SDS011;46221;51.178;5.900;2023-03-19T04:09:07;3.22;;;1.42;;
50337;SDS011;46221;51.178;5.900;2023-03-19T04:11:34;3.97;;;1.55;;
50337;SDS011;46221;51.178;5.900;2023-03-19T04:14:00;3.25;;;1.80;;
50337;SDS011;46221;51.178;5.900;2023-03-19T04:16:28;4.07;;;1.85;;
50337;SDS011;46221;51.178;5.900;2023-03-19T04:18:55;2.75;;;1.40;;
50337;SDS011;46221;51.178;5.900;2023-03-19T04:21:21;2.95;;;1.60;;
50337;SDS011;46221;51.178;5.900;2023-03-19T04:23:47;3.30;;;1.80;;
50337;SDS011;46221;51.178;5.900;2023-03-19T04:26:14;3.67;;;1.40;;
50337;SDS011;46221;51.178;5.900;2023-03-19T04:28:40;2.78;;;1.30;;
50337;SDS011;46221;51.178;5.900;2023-03-19T04:31:06;2.83;;;1.50;;
50337;SDS011;46221;51.178;5.900;2023-03-19T04:33:34;2.88;;;1.40;;
50337;SDS011;46221;51.178;5.900;2023-03-19T04:36:01;2.45;;;1.30;;
50337;SDS011;46221;51.178;5.900;2023-03-19T04:38:28;3.03;;;1.52;;
50337;SDS011;46221;51.178;5.900;2023-03-19T04:40:54;2.60;;;1.38;;
50337;SDS011;46221;51.178;5.900;2023-03-19T04:43:21;4.18;;;1.50;;
50337;SDS011;46221;51.178;5.900;2023-03-19T04:45:48;2.38;;;1.27;;
50337;SDS011;46221;51.178;5.900;2023-03-19T04:48:14;3.90;;;1.83;;
50337;SDS011;46221;51.178;5.900;2023-03-19T04:50:42;2.80;;;1.67;;
50337;SDS011;46221;51.178;5.900;2023-03-19T04:53:08;2.70;;;1.30;;
50337;SDS011;46221;51.178;5.900;2023-03-19T04:55:34;3.30;;;1.58;;
50337;SDS011;46221;51.178;5.900;2023-03-19T04:58:01;3.10;;;1.50;;
50337;SDS011;46221;51.178;5.900;2023-03-19T05:00:27;3.00;;;1.63;;
50337;SDS011;46221;51.178;5.900;2023-03-19T05:02:56;3.22;;;1.70;;
50337;SDS011;46221;51.178;5.900;2023-03-19T05:05:22;2.55;;;1.40;;
50337;SDS011;46221;51.178;5.900;2023-03-19T05:07:48;2.60;;;1.50;;
50337;SDS011;46221;51.178;5.900;2023-03-19T05:10:15;3.25;;;1.27;;
50337;SDS011;46221;51.178;5.900;2023-03-19T05:12:41;3.63;;;1.55;;
50337;SDS011;46221;51.178;5.900;2023-03-19T05:15:08;3.75;;;1.40;;
50337;SDS011;46221;51.178;5.900;2023-03-19T05:17:34;2.83;;;1.45;;
50337;SDS011;46221;51.178;5.900;2023-03-19T05:20:01;2.53;;;1.33;;
50337;SDS011;46221;51.178;5.900;2023-03-19T05:22:27;3.55;;;1.70;;
50337;SDS011;46221;51.178;5.900;2023-03-19T05:24:54;2.45;;;1.40;;
50337;SDS011;46221;51.178;5.900;2023-03-19T05:27:20;2.70;;;1.42;;
50337;SDS011;46221;51.178;5.900;2023-03-19T05:29:47;3.50;;;1.70;;
50337;SDS011;46221;51.178;5.900;2023-03-19T05:32:13;1.77;;;1.20;;
50337;SDS011;46221;51.178;5.900;2023-03-19T05:34:39;1.92;;;1.25;;
50337;SDS011;46221;51.178;5.900;2023-03-19T05:37:06;2.50;;;1.45;;
50337;SDS011;46221;51.178;5.900;2023-03-19T05:39:32;3.47;;;1.77;;
50337;SDS011;46221;51.178;5.900;2023-03-19T05:41:59;3.78;;;1.60;;
50337;SDS011;46221;51.178;5.900;2023-03-19T05:44:25;2.72;;;1.52;;
50337;SDS011;46221;51.178;5.900;2023-03-19T05:46:51;2.70;;;1.30;;
50337;SDS011;46221;51.178;5.900;2023-03-19T05:49:18;4.63;;;1.60;;
50337;SDS011;46221;51.178;5.900;2023-03-19T05:51:44;2.42;;;1.35;;
50337;SDS011;46221;51.178;5.900;2023-03-19T05:54:11;4.22;;;1.77;;
50337;SDS011;46221;51.178;5.900;2023-03-19T05:56:37;3.08;;;1.60;;
50337;SDS011;46221;51.178;5.900;2023-03-19T05:59:03;4.97;;;1.98;;
50337;SDS011;46221;51.178;5.900;2023-03-19T06:01:29;4.53;;;1.63;;
50337;SDS011;46221;51.178;5.900;2023-03-19T06:03:56;2.67;;;1.20;;
50337;SDS011;46221;51.178;5.900;2023-03-19T06:06:22;1.90;;;1.33;;
50337;SDS011;46221;51.178;5.900;2023-03-19T06:08:49;3.72;;;1.75;;
50337;SDS011;46221;51.178;5.900;2023-03-19T06:11:15;4.63;;;1.60;;
50337;SDS011;46221;51.178;5.900;2023-03-19T06:13:42;3.92;;;1.80;;
50337;SDS011;46221;51.178;5.900;2023-03-19T06:16:08;2.75;;;1.40;;
50337;SDS011;46221;51.178;5.900;2023-03-19T06:18:35;2.35;;;1.33;;
50337;SDS011;46221;51.178;5.900;2023-03-19T06:21:02;2.85;;;1.52;;
50337;SDS011;46221;51.178;5.900;2023-03-19T06:23:29;3.20;;;1.45;;
50337;SDS011;46221;51.178;5.900;2023-03-19T06:25:55;2.92;;;1.48;;
50337;SDS011;46221;51.178;5.900;2023-03-19T06:28:21;2.88;;;1.60;;
50337;SDS011;46221;51.178;5.900;2023-03-19T06:30:48;3.33;;;1.30;;
50337;SDS011;46221;51.178;5.900;2023-03-19T06:33:14;3.10;;;1.50;;
50337;SDS011;46221;51.178;5.900;2023-03-19T06:35:41;2.50;;;1.40;;
50337;SDS011;46221;51.178;5.900;2023-03-19T06:38:07;2.47;;;1.30;;
50337;SDS011;46221;51.178;5.900;2023-03-19T06:40:34;3.15;;;1.58;;
50337;SDS011;46221;51.178;5.900;2023-03-19T06:43:01;3.30;;;1.40;;
50337;SDS011;46221;51.178;5.900;2023-03-19T06:45:27;2.97;;;1.50;;
50337;SDS011;46221;51.178;5.900;2023-03-19T06:47:53;2.63;;;1.40;;
50337;SDS011;46221;51.178;5.900;2023-03-19T06:50:20;2.60;;;1.42;;
50337;SDS011;46221;51.178;5.900;2023-03-19T06:52:46;2.53;;;1.52;;
50337;SDS011;46221;51.178;5.900;2023-03-19T06:55:12;4.57;;;1.80;;
50337;SDS011;46221;51.178;5.900;2023-03-19T06:57:39;2.95;;;1.65;;
50337;SDS011;46221;51.178;5.900;2023-03-19T07:00:06;2.58;;;1.55;;
50337;SDS011;46221;51.178;5.900;2023-03-19T07:02:32;3.65;;;1.63;;
50337;SDS011;46221;51.178;5.900;2023-03-19T07:04:58;4.85;;;1.60;;
50337;SDS011;46221;51.178;5.900;2023-03-19T07:07:25;3.42;;;1.55;;
50337;SDS011;46221;51.178;5.900;2023-03-19T07:09:51;3.38;;;1.30;;
50337;SDS011;46221;51.178;5.900;2023-03-19T07:12:18;4.75;;;1.80;;
50337;SDS011;46221;51.178;5.900;2023-03-19T07:14:44;3.45;;;1.50;;
50337;SDS011;46221;51.178;5.900;2023-03-19T07:17:11;2.88;;;1.63;;
50337;SDS011;46221;51.178;5.900;2023-03-19T07:19:38;3.40;;;1.40;;
50337;SDS011;46221;51.178;5.900;2023-03-19T07:22:04;2.95;;;1.50;;
50337;SDS011;46221;51.178;5.900;2023-03-19T07:24:30;3.83;;;1.50;;
50337;SDS011;46221;51.178;5.900;2023-03-19T07:26:57;2.83;;;1.45;;
50337;SDS011;46221;51.178;5.900;2023-03-19T07:29:23;3.95;;;1.52;;
50337;SDS011;46221;51.178;5.900;2023-03-19T07:31:50;3.88;;;1.70;;
50337;SDS011;46221;51.178;5.900;2023-03-19T07:34:16;4.32;;;1.60;;
50337;SDS011;46221;51.178;5.900;2023-03-19T07:36:42;2.95;;;1.58;;
50337;SDS011;46221;51.178;5.900;2023-03-19T07:39:09;4.78;;;1.33;;
50337;SDS011;46221;51.178;5.900;2023-03-19T07:41:36;3.53;;;1.58;;
50337;SDS011;46221;51.178;5.900;2023-03-19T07:44:02;2.63;;;1.35;;
50337;SDS011;46221;51.178;5.900;2023-03-19T07:46:28;3.60;;;1.50;;
50337;SDS011;46221;51.178;5.900;2023-03-19T07:48:55;4.03;;;1.60;;
50337;SDS011;46221;51.178;5.900;2023-03-19T07:51:21;2.20;;;1.35;;
50337;SDS011;46221;51.178;5.900;2023-03-19T07:53:48;2.95;;;1.33;;
50337;SDS011;46221;51.178;5.900;2023-03-19T07:56:14;2.30;;;1.50;;
50337;SDS011;46221;51.178;5.900;2023-03-19T07:58:40;3.33;;;1.70;;
50337;SDS011;46221;51.178;5.900;2023-03-19T08:01:07;4.07;;;1.92;;
50337;SDS011;46221;51.178;5.900;2023-03-19T08:03:33;3.33;;;1.50;;
50337;SDS011;46221;51.178;5.900;2023-03-19T08:06:00;2.30;;;1.38;;
50337;SDS011;46221;51.178;5.900;2023-03-19T08:08:26;4.63;;;1.60;;
50337;SDS011;46221;51.178;5.900;2023-03-19T08:10:53;4.07;;;1.70;;
50337;SDS011;46221;51.178;5.900;2023-03-19T08:13:19;5.03;;;2.00;;
50337;SDS011;46221;51.178;5.900;2023-03-19T08:15:46;3.80;;;1.65;;
50337;SDS011;46221;51.178;5.900;2023-03-19T08:18:12;3.88;;;2.03;;
50337;SDS011;46221;51.178;5.900;2023-03-19T08:20:38;6.63;;;2.28;;
50337;SDS011;46221;51.178;5.900;2023-03-19T08:23:05;4.22;;;2.10;;
50337;SDS011;46221;51.178;5.900;2023-03-19T08:25:32;2.95;;;2.05;;
50337;SDS011;46221;51.178;5.900;2023-03-19T08:27:59;3.75;;;1.85;;
50337;SDS011;46221;51.178;5.900;2023-03-19T08:30:25;4.20;;;2.00;;
50337;SDS011;46221;51.178;5.900;2023-03-19T08:32:52;4.13;;;2.15;;
50337;SDS011;46221;51.178;5.900;2023-03-19T08:35:18;4.82;;;2.30;;
50337;SDS011;46221;51.178;5.900;2023-03-19T08:37:45;4.80;;;1.90;;
50337;SDS011;46221;51.178;5.900;2023-03-19T08:40:11;3.83;;;1.90;;
50337;SDS011;46221;51.178;5.900;2023-03-19T08:42:38;3.22;;;1.80;;
50337;SDS011;46221;51.178;5.900;2023-03-19T08:45:10;4.45;;;2.03;;
50337;SDS011;46221;51.178;5.900;2023-03-19T08:47:37;5.78;;;2.10;;
50337;SDS011;46221;51.178;5.900;2023-03-19T08:50:03;3.25;;;2.15;;
50337;SDS011;46221;51.178;5.900;2023-03-19T08:52:30;3.97;;;2.20;;
50337;SDS011;46221;51.178;5.900;2023-03-19T08:54:56;4.05;;;2.25;;
50337;SDS011;46221;51.178;5.900;2023-03-19T08:57:23;4.72;;;2.38;;
50337;SDS011;46221;51.178;5.900;2023-03-19T08:59:51;3.28;;;2.28;;
50337;SDS011;46221;51.178;5.900;2023-03-19T09:02:17;3.65;;;2.13;;
50337;SDS011;46221;51.178;5.900;2023-03-19T09:04:43;5.93;;;2.70;;
50337;SDS011;46221;51.178;5.900;2023-03-19T09:07:10;3.58;;;2.38;;
50337;SDS011;46221;51.178;5.900;2023-03-19T09:09:41;3.35;;;2.33;;
50337;SDS011;46221;51.178;5.900;2023-03-19T09:12:09;5.80;;;2.60;;
50337;SDS011;46221;51.178;5.900;2023-03-19T09:14:36;3.03;;;2.22;;
50337;SDS011;46221;51.178;5.900;2023-03-19T09:17:03;4.30;;;2.63;;
50337;SDS011;46221;51.178;5.900;2023-03-19T09:19:29;4.80;;;2.58;;
50337;SDS011;46221;51.178;5.900;2023-03-19T09:21:56;4.18;;;2.17;;
50337;SDS011;46221;51.178;5.900;2023-03-19T09:24:22;4.38;;;2.80;;
50337;SDS011;46221;51.178;5.900;2023-03-19T09:26:49;3.28;;;2.33;;
50337;SDS011;46221;51.178;5.900;2023-03-19T09:29:15;3.42;;;2.10;;
50337;SDS011;46221;51.178;5.900;2023-03-19T09:31:41;4.47;;;2.20;;
50337;SDS011;46221;51.178;5.900;2023-03-19T09:34:08;4.53;;;2.30;;
50337;SDS011;46221;51.178;5.900;2023-03-19T09:36:35;4.57;;;2.20;;
50337;SDS011;46221;51.178;5.900;2023-03-19T09:39:01;4.78;;;2.42;;
50337;SDS011;46221;51.178;5.900;2023-03-19T09:41:31;5.03;;;2.13;;
50337;SDS011;46221;51.178;5.900;2023-03-19T09:44:02;3.72;;;2.25;;
50337;SDS011;46221;51.178;5.900;2023-03-19T09:49:06;5.28;;;2.40;;
50337;SDS011;46221;51.178;5.900;2023-03-19T09:51:39;5.72;;;2.30;;
50337;SDS011;46221;51.178;5.900;2023-03-19T09:56:47;3.25;;;1.80;;
50337;SDS011;46221;51.178;5.900;2023-03-19T09:59:13;4.35;;;2.08;;
50337;SDS011;46221;51.178;5.900;2023-03-19T10:01:40;4.70;;;2.30;;
50337;SDS011;46221;51.178;5.900;2023-03-19T10:06:59;4.47;;;2.03;;
50337;SDS011;46221;51.178;5.900;2023-03-19T10:14:50;3.92;;;1.58;;
50337;SDS011;46221;51.178;5.900;2023-03-19T10:17:25;3.85;;;1.90;;
50337;SDS011;46221;51.178;5.900;2023-03-19T10:19:57;3.72;;;2.08;;
50337;SDS011;46221;51.178;5.900;2023-03-19T10:22:44;3.30;;;1.77;;
50337;SDS011;46221;51.178;5.900;2023-03-19T10:25:14;3.42;;;1.85;;
50337;SDS011;46221;51.178;5.900;2023-03-19T10:27:44;3.20;;;1.70;;
50337;SDS011;46221;51.178;5.900;2023-03-19T10:30:12;3.97;;;1.50;;
50337;SDS011;46221;51.178;5.900;2023-03-19T10:32:43;3.13;;;1.55;;
50337;SDS011;46221;51.178;5.900;2023-03-19T10:35:36;3.40;;;1.30;;
50337;SDS011;46221;51.178;5.900;2023-03-19T10:38:05;5.30;;;1.80;;
50337;SDS011;46221;51.178;5.900;2023-03-19T10:40:34;5.63;;;1.80;;
50337;SDS011;46221;51.178;5.900;2023-03-19T10:43:10;3.00;;;1.50;;
50337;SDS011;46221;51.178;5.900;2023-03-19T10:45:39;4.07;;;1.80;;
50337;SDS011;46221;51.178;5.900;2023-03-19T10:48:06;4.47;;;1.48;;
50337;SDS011;46221;51.178;5.900;2023-03-19T10:50:37;3.30;;;1.52;;
50337;SDS011;46221;51.178;5.900;2023-03-19T10:55:45;3.35;;;1.40;;
50337;SDS011;46221;51.178;5.900;2023-03-19T10:58:16;3.58;;;1.33;;
50337;SDS011;46221;51.178;5.900;2023-03-19T11:00:46;4.53;;;1.77;;
50337;SDS011;46221;51.178;5.900;2023-03-19T11:03:27;2.35;;;1.33;;
50337;SDS011;46221;51.178;5.900;2023-03-19T11:08:34;3.53;;;1.50;;
50337;SDS011;46221;51.178;5.900;2023-03-19T11:11:01;3.28;;;1.55;;
50337;SDS011;46221;51.178;5.900;2023-03-19T11:13:28;4.60;;;1.60;;
50337;SDS011;46221;51.178;5.900;2023-03-19T11:15:58;2.60;;;1.40;;
50337;SDS011;46221;51.178;5.900;2023-03-19T11:18:38;5.05;;;1.70;;
50337;SDS011;46221;51.178;5.900;2023-03-19T11:21:06;3.42;;;1.50;;
50337;SDS011;46221;51.178;5.900;2023-03-19T11:23:39;2.60;;;1.33;;
50337;SDS011;46221;51.178;5.900;2023-03-19T11:26:06;3.45;;;1.20;;
50337;SDS011;46221;51.178;5.900;2023-03-19T11:28:32;3.20;;;1.58;;
50337;SDS011;46221;51.178;5.900;2023-03-19T11:33:58;4.75;;;1.48;;
50337;SDS011;46221;51.178;5.900;2023-03-19T11:36:32;2.63;;;1.45;;
50337;SDS011;46221;51.178;5.900;2023-03-19T11:39:18;4.43;;;1.70;;
50337;SDS011;46221;51.178;5.900;2023-03-19T11:49:59;6.13;;;2.00;;
50337;SDS011;46221;51.178;5.900;2023-03-19T11:57:52;3.58;;;1.90;;
50337;SDS011;46221;51.178;5.900;2023-03-19T12:00:42;2.40;;;1.50;;
50337;SDS011;46221;51.178;5.900;2023-03-19T12:08:58;5.07;;;1.70;;
50337;SDS011;46221;51.178;5.900;2023-03-19T12:16:32;5.82;;;1.88;;
50337;SDS011;46221;51.178;5.900;2023-03-19T12:24:33;3.08;;;1.70;;
50337;SDS011;46221;51.178;5.900;2023-03-19T12:29:26;2.58;;;1.52;;
50337;SDS011;46221;51.178;5.900;2023-03-19T12:35:08;5.55;;;1.98;;
50337;SDS011;46221;51.178;5.900;2023-03-19T12:37:28;3.97;;;1.63;;
50337;SDS011;46221;51.178;5.900;2023-03-19T12:40:38;5.03;;;1.90;;
50337;SDS011;46221;51.178;5.900;2023-03-19T12:42:44;4.90;;;1.73;;
50337;SDS011;46221;51.178;5.900;2023-03-19T12:45:18;6.50;;;2.00;;
50337;SDS011;46221;51.178;5.900;2023-03-19T12:47:48;3.30;;;1.80;;
50337;SDS011;46221;51.178;5.900;2023-03-19T12:50:15;5.07;;;1.88;;
50337;SDS011;46221;51.178;5.900;2023-03-19T12:52:43;5.35;;;1.88;;
50337;SDS011;46221;51.178;5.900;2023-03-19T12:55:22;4.85;;;1.90;;
50337;SDS011;46221;51.178;5.900;2023-03-19T12:57:52;4.07;;;1.77;;
50337;SDS011;46221;51.178;5.900;2023-03-19T13:05:17;3.65;;;1.67;;
50337;SDS011;46221;51.178;5.900;2023-03-19T13:10:23;5.67;;;2.20;;
50337;SDS011;46221;51.178;5.900;2023-03-19T13:12:50;4.28;;;2.05;;
50337;SDS011;46221;51.178;5.900;2023-03-19T13:20:23;4.72;;;1.60;;
50337;SDS011;46221;51.178;5.900;2023-03-19T13:22:54;4.22;;;1.65;;
50337;SDS011;46221;51.178;5.900;2023-03-19T13:25:23;4.43;;;1.80;;
50337;SDS011;46221;51.178;5.900;2023-03-19T13:27:52;4.82;;;1.92;;
50337;SDS011;46221;51.178;5.900;2023-03-19T13:30:22;10.55;;;2.17;;
50337;SDS011;46221;51.178;5.900;2023-03-19T13:32:49;7.30;;;2.22;;
50337;SDS011;46221;51.178;5.900;2023-03-19T13:35:27;7.55;;;2.08;;
50337;SDS011;46221;51.178;5.900;2023-03-19T13:37:58;7.05;;;2.15;;
50337;SDS011;46221;51.178;5.900;2023-03-19T13:51:01;7.30;;;2.33;;
50337;SDS011;46221;51.178;5.900;2023-03-19T13:56:21;10.10;;;2.72;;
50337;SDS011;46221;51.178;5.900;2023-03-19T14:01:40;6.15;;;2.30;;
50337;SDS011;46221;51.178;5.900;2023-03-19T14:06:52;7.15;;;2.10;;
50337;SDS011;46221;51.178;5.900;2023-03-19T14:09:53;4.63;;;2.00;;
50337;SDS011;46221;51.178;5.900;2023-03-19T14:12:19;4.75;;;2.33;;
50337;SDS011;46221;51.178;5.900;2023-03-19T14:14:53;6.40;;;2.20;;
50337;SDS011;46221;51.178;5.900;2023-03-19T14:17:32;4.80;;;2.28;;
50337;SDS011;46221;51.178;5.900;2023-03-19T14:22:53;3.28;;;1.65;;
50337;SDS011;46221;51.178;5.900;2023-03-19T14:25:22;6.32;;;2.30;;
50337;SDS011;46221;51.178;5.900;2023-03-19T14:27:50;5.43;;;2.28;;
50337;SDS011;46221;51.178;5.900;2023-03-19T14:33:04;5.18;;;2.00;;
50337;SDS011;46221;51.178;5.900;2023-03-19T14:35:34;5.38;;;2.50;;
50337;SDS011;46221;51.178;5.900;2023-03-19T14:38:01;5.68;;;1.85;;
50337;SDS011;46221;51.178;5.900;2023-03-19T14:40:41;4.38;;;2.10;;
50337;SDS011;46221;51.178;5.900;2023-03-19T14:43:12;5.57;;;1.80;;
50337;SDS011;46221;51.178;5.900;2023-03-19T14:45:47;7.28;;;2.15;;
50337;SDS011;46221;51.178;5.900;2023-03-19T14:55:52;4.32;;;2.00;;
50337;SDS011;46221;51.178;5.900;2023-03-19T14:58:18;3.38;;;1.80;;
50337;SDS011;46221;51.178;5.900;2023-03-19T15:00:46;4.00;;;1.58;;
50337;SDS011;46221;51.178;5.900;2023-03-19T15:03:18;4.78;;;2.00;;
50337;SDS011;46221;51.178;5.900;2023-03-19T15:05:45;4.15;;;1.73;;
50337;SDS011;46221;51.178;5.900;2023-03-19T15:08:16;6.10;;;1.98;;
50337;SDS011;46221;51.178;5.900;2023-03-19T15:10:50;4.15;;;1.80;;
50337;SDS011;46221;51.178;5.900;2023-03-19T15:18:32;5.45;;;1.85;;
50337;SDS011;46221;51.178;5.900;2023-03-19T15:21:01;5.70;;;2.15;;
50337;SDS011;46221;51.178;5.900;2023-03-19T15:23:28;6.93;;;2.20;;
50337;SDS011;46221;51.178;5.900;2023-03-19T15:25:59;6.05;;;2.90;;
50337;SDS011;46221;51.178;5.900;2023-03-19T15:28:27;5.90;;;2.70;;
50337;SDS011;46221;51.178;5.900;2023-03-19T15:30:55;7.97;;;3.08;;
50337;SDS011;46221;51.178;5.900;2023-03-19T15:33:34;8.05;;;3.28;;
50337;SDS011;46221;51.178;5.900;2023-03-19T15:36:10;7.93;;;3.65;;
50337;SDS011;46221;51.178;5.900;2023-03-19T15:41:11;7.97;;;3.80;;
50337;SDS011;46221;51.178;5.900;2023-03-19T15:43:38;7.97;;;3.78;;
50337;SDS011;46221;51.178;5.900;2023-03-19T15:46:06;9.68;;;4.45;;
50337;SDS011;46221;51.178;5.900;2023-03-19T15:48:41;7.25;;;3.50;;
50337;SDS011;46221;51.178;5.900;2023-03-19T15:51:08;7.80;;;3.78;;
50337;SDS011;46221;51.178;5.900;2023-03-19T15:53:35;6.65;;;3.58;;
50337;SDS011;46221;51.178;5.900;2023-03-19T15:56:02;10.25;;;4.10;;
50337;SDS011;46221;51.178;5.900;2023-03-19T15:58:36;10.50;;;4.15;;
50337;SDS011;46221;51.178;5.900;2023-03-19T16:01:04;9.45;;;3.70;;
50337;SDS011;46221;51.178;5.900;2023-03-19T16:03:34;8.45;;;3.45;;
50337;SDS011;46221;51.178;5.900;2023-03-19T16:06:04;8.18;;;3.35;;
50337;SDS011;46221;51.178;5.900;2023-03-19T16:08:31;7.53;;;3.88;;
50337;SDS011;46221;51.178;5.900;2023-03-19T16:11:14;7.65;;;3.72;;
50337;SDS011;46221;51.178;5.900;2023-03-19T16:13:40;9.60;;;4.25;;
50337;SDS011;46221;51.178;5.900;2023-03-19T16:16:19;8.38;;;4.65;;
50337;SDS011;46221;51.178;5.900;2023-03-19T16:18:47;7.47;;;3.80;;
50337;SDS011;46221;51.178;5.900;2023-03-19T16:21:34;9.50;;;4.38;;
50337;SDS011;46221;51.178;5.900;2023-03-19T16:26:38;10.40;;;4.85;;
50337;SDS011;46221;51.178;5.900;2023-03-19T16:31:39;9.57;;;4.75;;
50337;SDS011;46221;51.178;5.900;2023-03-19T16:34:15;9.70;;;4.88;;
50337;SDS011;46221;51.178;5.900;2023-03-19T17:18:11;28.67;;;16.08;;
50337;SDS011;46221;51.178;5.900;2023-03-19T17:20:40;26.80;;;14.55;;
50337;SDS011;46221;51.178;5.900;2023-03-19T17:23:10;24.85;;;12.55;;
50337;SDS011;46221;51.178;5.900;2023-03-19T17:25:38;31.25;;;14.13;;
50337;SDS011;46221;51.178;5.900;2023-03-19T17:28:04;25.77;;;14.30;;
50337;SDS011;46221;51.178;5.900;2023-03-19T17:30:31;26.05;;;13.45;;